sensor_id;sensor_type;location;lat;lon;timestamp;temperature;humidity
25436;DHT22;13363;52.772;-3.890;2022-11-22T00:02:14;7.90;99.90
25436;DHT22;13363;52.772;-3.890;2022-11-22T00:04:40;7.90;99.90
25436;DHT22;13363;52.772;-3.890;2022-11-22T00:07:06;8.00;99.90
25436;DHT22;13363;52.772;-3.890;2022-11-22T00:09:33;7.90;99.90
25436;DHT22;13363;52.772;-3.890;2022-11-22T00:11:59;8.00;99.90
25436;DHT22;13363;52.772;-3.890;2022-11-22T00:14:25;7.90;99.90
25436;DHT22;13363;52.772;-3.890;2022-11-22T00:16:51;7.90;99.90
25436;DHT22;13363;52.772;-3.890;2022-11-22T00:19:17;7.90;99.90
25436;DHT22;13363;52.772;-3.890;2022-11-22T00:21:42;7.90;99.90
25436;DHT22;13363;52.772;-3.890;2022-11-22T00:24:10;7.80;99.90
25436;DHT22;13363;52.772;-3.890;2022-11-22T00:26:37;7.90;99.90
25436;DHT22;13363;52.772;-3.890;2022-11-22T00:29:02;7.80;99.90
25436;DHT22;13363;52.772;-3.890;2022-11-22T00:31:28;7.90;99.90
25436;DHT22;13363;52.772;-3.890;2022-11-22T00:33:54;7.90;99.90
25436;DHT22;13363;52.772;-3.890;2022-11-22T00:36:20;7.90;99.90
25436;DHT22;13363;52.772;-3.890;2022-11-22T00:38:46;7.90;99.90
25436;DHT22;13363;52.772;-3.890;2022-11-22T00:41:11;7.90;99.90
25436;DHT22;13363;52.772;-3.890;2022-11-22T00:43:37;7.90;99.90
25436;DHT22;13363;52.772;-3.890;2022-11-22T00:46:03;7.90;99.90
25436;DHT22;13363;52.772;-3.890;2022-11-22T00:48:29;7.90;99.90
25436;DHT22;13363;52.772;-3.890;2022-11-22T00:50:55;7.80;99.90
25436;DHT22;13363;52.772;-3.890;2022-11-22T00:53:21;7.70;99.90
25436;DHT22;13363;52.772;-3.890;2022-11-22T00:55:48;7.70;99.90
25436;DHT22;13363;52.772;-3.890;2022-11-22T00:58:14;7.70;99.90
25436;DHT22;13363;52.772;-3.890;2022-11-22T01:00:40;7.60;99.90
25436;DHT22;13363;52.772;-3.890;2022-11-22T01:03:12;7.60;99.90
25436;DHT22;13363;52.772;-3.890;2022-11-22T01:05:38;7.50;99.90
25436;DHT22;13363;52.772;-3.890;2022-11-22T01:08:05;7.50;99.90
25436;DHT22;13363;52.772;-3.890;2022-11-22T01:10:31;7.50;99.90
25436;DHT22;13363;52.772;-3.890;2022-11-22T01:12:59;7.40;99.90
25436;DHT22;13363;52.772;-3.890;2022-11-22T01:15:24;7.40;99.90
25436;DHT22;13363;52.772;-3.890;2022-11-22T01:17:50;7.30;99.90
25436;DHT22;13363;52.772;-3.890;2022-11-22T01:20:16;7.30;99.90
25436;DHT22;13363;52.772;-3.890;2022-11-22T01:22:42;7.30;99.90
25436;DHT22;13363;52.772;-3.890;2022-11-22T01:25:08;7.20;99.90
25436;DHT22;13363;52.772;-3.890;2022-11-22T01:27:34;7.20;99.90
25436;DHT22;13363;52.772;-3.890;2022-11-22T01:30:00;7.20;99.90
25436;DHT22;13363;52.772;-3.890;2022-11-22T01:32:26;7.20;99.90
25436;DHT22;13363;52.772;-3.890;2022-11-22T01:34:51;7.10;99.90
25436;DHT22;13363;52.772;-3.890;2022-11-22T01:37:17;7.10;99.90
25436;DHT22;13363;52.772;-3.890;2022-11-22T01:39:43;7.10;99.90
25436;DHT22;13363;52.772;-3.890;2022-11-22T01:42:10;7.10;99.90
25436;DHT22;13363;52.772;-3.890;2022-11-22T01:44:39;7.00;99.90
25436;DHT22;13363;52.772;-3.890;2022-11-22T01:47:16;7.00;99.90
25436;DHT22;13363;52.772;-3.890;2022-11-22T01:49:49;7.00;99.90
25436;DHT22;13363;52.772;-3.890;2022-11-22T01:52:19;7.00;99.90
25436;DHT22;13363;52.772;-3.890;2022-11-22T01:55:02;7.00;99.90
25436;DHT22;13363;52.772;-3.890;2022-11-22T01:57:31;6.90;99.90
25436;DHT22;13363;52.772;-3.890;2022-11-22T02:00:08;6.90;99.90
25436;DHT22;13363;52.772;-3.890;2022-11-22T02:02:35;6.90;99.90
25436;DHT22;13363;52.772;-3.890;2022-11-22T02:05:08;6.80;99.90
25436;DHT22;13363;52.772;-3.890;2022-11-22T02:07:42;6.80;99.90
25436;DHT22;13363;52.772;-3.890;2022-11-22T02:10:10;6.70;99.90
25436;DHT22;13363;52.772;-3.890;2022-11-22T02:12:36;6.70;99.90
25436;DHT22;13363;52.772;-3.890;2022-11-22T02:15:03;6.70;99.90
25436;DHT22;13363;52.772;-3.890;2022-11-22T02:17:29;6.70;99.90
25436;DHT22;13363;52.772;-3.890;2022-11-22T02:19:55;6.70;99.90
25436;DHT22;13363;52.772;-3.890;2022-11-22T02:22:32;6.70;99.90
25436;DHT22;13363;52.772;-3.890;2022-11-22T02:25:12;6.70;99.90
25436;DHT22;13363;52.772;-3.890;2022-11-22T02:27:40;6.60;99.90
25436;DHT22;13363;52.772;-3.890;2022-11-22T02:30:07;6.60;99.90
25436;DHT22;13363;52.772;-3.890;2022-11-22T02:32:32;6.60;99.90
25436;DHT22;13363;52.772;-3.890;2022-11-22T02:34:58;6.70;99.90
25436;DHT22;13363;52.772;-3.890;2022-11-22T02:37:30;6.70;99.90
25436;DHT22;13363;52.772;-3.890;2022-11-22T02:40:03;6.70;99.90
25436;DHT22;13363;52.772;-3.890;2022-11-22T02:42:34;6.70;99.90
25436;DHT22;13363;52.772;-3.890;2022-11-22T02:45:00;6.60;99.90
25436;DHT22;13363;52.772;-3.890;2022-11-22T02:47:26;6.60;99.90
25436;DHT22;13363;52.772;-3.890;2022-11-22T02:49:52;6.60;99.90
25436;DHT22;13363;52.772;-3.890;2022-11-22T02:52:19;6.70;99.90
25436;DHT22;13363;52.772;-3.890;2022-11-22T02:54:45;6.70;99.90
25436;DHT22;13363;52.772;-3.890;2022-11-22T02:57:11;6.70;99.90
25436;DHT22;13363;52.772;-3.890;2022-11-22T02:59:37;6.70;99.90
25436;DHT22;13363;52.772;-3.890;2022-11-22T03:02:03;6.60;99.90
25436;DHT22;13363;52.772;-3.890;2022-11-22T03:04:29;6.70;99.90
25436;DHT22;13363;52.772;-3.890;2022-11-22T03:06:57;6.80;99.90
25436;DHT22;13363;52.772;-3.890;2022-11-22T03:09:25;6.80;99.90
25436;DHT22;13363;52.772;-3.890;2022-11-22T03:11:51;6.80;99.90
25436;DHT22;13363;52.772;-3.890;2022-11-22T03:14:17;6.70;99.90
25436;DHT22;13363;52.772;-3.890;2022-11-22T03:16:43;6.70;99.90
25436;DHT22;13363;52.772;-3.890;2022-11-22T03:19:10;6.70;99.90
25436;DHT22;13363;52.772;-3.890;2022-11-22T03:21:37;6.70;99.90
25436;DHT22;13363;52.772;-3.890;2022-11-22T03:24:03;6.60;99.90
25436;DHT22;13363;52.772;-3.890;2022-11-22T03:26:29;6.60;99.90
25436;DHT22;13363;52.772;-3.890;2022-11-22T03:28:55;6.60;99.90
25436;DHT22;13363;52.772;-3.890;2022-11-22T03:31:21;6.60;99.90
25436;DHT22;13363;52.772;-3.890;2022-11-22T03:33:47;6.60;99.90
25436;DHT22;13363;52.772;-3.890;2022-11-22T03:36:12;6.60;99.90
25436;DHT22;13363;52.772;-3.890;2022-11-22T03:38:38;6.60;99.90
25436;DHT22;13363;52.772;-3.890;2022-11-22T03:41:04;6.50;99.90
25436;DHT22;13363;52.772;-3.890;2022-11-22T03:43:30;6.50;99.90
25436;DHT22;13363;52.772;-3.890;2022-11-22T03:45:56;6.50;99.90
25436;DHT22;13363;52.772;-3.890;2022-11-22T03:48:22;6.50;99.90
25436;DHT22;13363;52.772;-3.890;2022-11-22T03:50:47;6.50;99.90
25436;DHT22;13363;52.772;-3.890;2022-11-22T03:53:13;6.40;99.90
25436;DHT22;13363;52.772;-3.890;2022-11-22T03:55:39;6.40;99.90
25436;DHT22;13363;52.772;-3.890;2022-11-22T03:58:05;6.40;99.90
25436;DHT22;13363;52.772;-3.890;2022-11-22T04:00:32;6.40;99.90
25436;DHT22;13363;52.772;-3.890;2022-11-22T04:02:58;6.40;99.90
25436;DHT22;13363;52.772;-3.890;2022-11-22T04:05:24;6.40;99.90
25436;DHT22;13363;52.772;-3.890;2022-11-22T04:07:50;6.40;99.90
25436;DHT22;13363;52.772;-3.890;2022-11-22T04:10:22;6.40;99.90
25436;DHT22;13363;52.772;-3.890;2022-11-22T04:12:48;6.40;99.90
25436;DHT22;13363;52.772;-3.890;2022-11-22T04:15:14;6.40;99.90
25436;DHT22;13363;52.772;-3.890;2022-11-22T04:17:41;6.40;99.90
25436;DHT22;13363;52.772;-3.890;2022-11-22T04:20:19;6.40;99.90
25436;DHT22;13363;52.772;-3.890;2022-11-22T04:23:06;6.50;99.90
25436;DHT22;13363;52.772;-3.890;2022-11-22T04:25:34;6.50;99.90
25436;DHT22;13363;52.772;-3.890;2022-11-22T04:28:00;6.40;99.90
25436;DHT22;13363;52.772;-3.890;2022-11-22T04:30:27;6.40;99.90
25436;DHT22;13363;52.772;-3.890;2022-11-22T04:33:12;6.40;99.90
25436;DHT22;13363;52.772;-3.890;2022-11-22T04:35:38;6.30;99.90
25436;DHT22;13363;52.772;-3.890;2022-11-22T04:38:04;6.30;99.90
25436;DHT22;13363;52.772;-3.890;2022-11-22T04:40:30;6.30;99.90
25436;DHT22;13363;52.772;-3.890;2022-11-22T04:42:56;6.30;99.90
25436;DHT22;13363;52.772;-3.890;2022-11-22T04:45:41;6.30;99.90
25436;DHT22;13363;52.772;-3.890;2022-11-22T04:48:07;6.30;99.90
25436;DHT22;13363;52.772;-3.890;2022-11-22T04:50:33;6.30;99.90
25436;DHT22;13363;52.772;-3.890;2022-11-22T04:53:17;6.20;99.90
25436;DHT22;13363;52.772;-3.890;2022-11-22T04:55:44;6.20;99.90
25436;DHT22;13363;52.772;-3.890;2022-11-22T04:58:11;6.20;99.90
25436;DHT22;13363;52.772;-3.890;2022-11-22T05:00:37;6.20;99.90
25436;DHT22;13363;52.772;-3.890;2022-11-22T05:03:04;6.20;99.90
25436;DHT22;13363;52.772;-3.890;2022-11-22T05:05:31;6.20;99.90
25436;DHT22;13363;52.772;-3.890;2022-11-22T05:07:59;6.20;99.90
25436;DHT22;13363;52.772;-3.890;2022-11-22T05:10:24;6.20;99.90
25436;DHT22;13363;52.772;-3.890;2022-11-22T05:12:50;6.20;99.90
25436;DHT22;13363;52.772;-3.890;2022-11-22T05:15:16;6.20;99.90
25436;DHT22;13363;52.772;-3.890;2022-11-22T05:17:42;6.20;99.90
25436;DHT22;13363;52.772;-3.890;2022-11-22T05:20:08;6.20;99.90
25436;DHT22;13363;52.772;-3.890;2022-11-22T05:22:35;6.10;99.90
25436;DHT22;13363;52.772;-3.890;2022-11-22T05:25:19;6.10;99.90
25436;DHT22;13363;52.772;-3.890;2022-11-22T05:27:45;6.10;99.90
25436;DHT22;13363;52.772;-3.890;2022-11-22T05:30:11;6.10;99.90
25436;DHT22;13363;52.772;-3.890;2022-11-22T05:32:37;6.00;99.90
25436;DHT22;13363;52.772;-3.890;2022-11-22T05:35:03;6.00;99.90
25436;DHT22;13363;52.772;-3.890;2022-11-22T05:37:29;5.90;99.90
25436;DHT22;13363;52.772;-3.890;2022-11-22T05:39:55;5.90;99.90
25436;DHT22;13363;52.772;-3.890;2022-11-22T05:42:20;5.80;99.90
25436;DHT22;13363;52.772;-3.890;2022-11-22T05:44:46;5.80;99.90
25436;DHT22;13363;52.772;-3.890;2022-11-22T05:47:12;5.80;99.90
25436;DHT22;13363;52.772;-3.890;2022-11-22T05:49:38;5.70;99.90
25436;DHT22;13363;52.772;-3.890;2022-11-22T05:52:04;5.60;99.90
25436;DHT22;13363;52.772;-3.890;2022-11-22T05:54:30;5.60;99.90
25436;DHT22;13363;52.772;-3.890;2022-11-22T05:56:56;5.60;99.90
25436;DHT22;13363;52.772;-3.890;2022-11-22T05:59:22;5.50;99.90
25436;DHT22;13363;52.772;-3.890;2022-11-22T06:01:47;5.50;99.90
25436;DHT22;13363;52.772;-3.890;2022-11-22T06:04:13;5.50;99.90
25436;DHT22;13363;52.772;-3.890;2022-11-22T06:06:39;5.40;99.90
25436;DHT22;13363;52.772;-3.890;2022-11-22T06:09:05;5.40;99.90
25436;DHT22;13363;52.772;-3.890;2022-11-22T06:11:31;5.40;99.90
25436;DHT22;13363;52.772;-3.890;2022-11-22T06:14:00;5.30;99.90
25436;DHT22;13363;52.772;-3.890;2022-11-22T06:16:29;5.30;99.90
25436;DHT22;13363;52.772;-3.890;2022-11-22T06:18:55;5.20;99.90
25436;DHT22;13363;52.772;-3.890;2022-11-22T06:21:24;5.20;99.90
25436;DHT22;13363;52.772;-3.890;2022-11-22T06:23:51;5.10;99.90
25436;DHT22;13363;52.772;-3.890;2022-11-22T06:26:19;5.20;99.90
25436;DHT22;13363;52.772;-3.890;2022-11-22T06:28:45;5.20;99.90
25436;DHT22;13363;52.772;-3.890;2022-11-22T06:31:23;5.20;99.90
25436;DHT22;13363;52.772;-3.890;2022-11-22T06:33:49;5.20;99.90
25436;DHT22;13363;52.772;-3.890;2022-11-22T06:36:18;5.20;99.90
25436;DHT22;13363;52.772;-3.890;2022-11-22T06:38:45;5.20;99.90
25436;DHT22;13363;52.772;-3.890;2022-11-22T06:41:13;5.20;99.90
25436;DHT22;13363;52.772;-3.890;2022-11-22T06:43:41;5.20;99.90
25436;DHT22;13363;52.772;-3.890;2022-11-22T06:46:08;5.20;99.90
25436;DHT22;13363;52.772;-3.890;2022-11-22T06:48:36;5.30;99.90
25436;DHT22;13363;52.772;-3.890;2022-11-22T06:51:08;5.30;99.90
25436;DHT22;13363;52.772;-3.890;2022-11-22T06:53:35;5.20;99.90
25436;DHT22;13363;52.772;-3.890;2022-11-22T06:56:04;5.20;99.90
25436;DHT22;13363;52.772;-3.890;2022-11-22T06:58:30;5.10;99.90
25436;DHT22;13363;52.772;-3.890;2022-11-22T07:01:17;5.10;99.90
25436;DHT22;13363;52.772;-3.890;2022-11-22T07:03:44;5.20;99.90
25436;DHT22;13363;52.772;-3.890;2022-11-22T07:06:12;5.20;99.90
25436;DHT22;13363;52.772;-3.890;2022-11-22T07:08:39;5.20;99.90
25436;DHT22;13363;52.772;-3.890;2022-11-22T07:11:11;5.20;99.90
25436;DHT22;13363;52.772;-3.890;2022-11-22T07:13:37;5.20;99.90
25436;DHT22;13363;52.772;-3.890;2022-11-22T07:16:06;5.20;99.90
25436;DHT22;13363;52.772;-3.890;2022-11-22T07:18:32;5.20;99.90
25436;DHT22;13363;52.772;-3.890;2022-11-22T07:21:10;5.20;99.90
25436;DHT22;13363;52.772;-3.890;2022-11-22T07:23:37;5.10;99.90
25436;DHT22;13363;52.772;-3.890;2022-11-22T07:26:03;5.10;99.90
25436;DHT22;13363;52.772;-3.890;2022-11-22T07:28:29;5.00;99.90
25436;DHT22;13363;52.772;-3.890;2022-11-22T07:31:03;5.00;99.90
25436;DHT22;13363;52.772;-3.890;2022-11-22T07:33:29;5.10;99.90
25436;DHT22;13363;52.772;-3.890;2022-11-22T07:35:55;5.20;99.90
25436;DHT22;13363;52.772;-3.890;2022-11-22T07:38:27;5.10;99.90
25436;DHT22;13363;52.772;-3.890;2022-11-22T07:40:53;5.10;99.90
25436;DHT22;13363;52.772;-3.890;2022-11-22T07:43:19;5.00;99.90
25436;DHT22;13363;52.772;-3.890;2022-11-22T07:45:44;5.00;99.90
25436;DHT22;13363;52.772;-3.890;2022-11-22T07:48:10;5.00;99.90
25436;DHT22;13363;52.772;-3.890;2022-11-22T07:50:39;5.10;99.90
25436;DHT22;13363;52.772;-3.890;2022-11-22T07:53:07;5.10;99.90
25436;DHT22;13363;52.772;-3.890;2022-11-22T07:55:33;5.10;99.90
25436;DHT22;13363;52.772;-3.890;2022-11-22T07:57:59;5.10;99.90
25436;DHT22;13363;52.772;-3.890;2022-11-22T08:00:26;5.10;99.90
25436;DHT22;13363;52.772;-3.890;2022-11-22T08:02:52;5.10;99.90
25436;DHT22;13363;52.772;-3.890;2022-11-22T08:05:18;5.10;99.90
25436;DHT22;13363;52.772;-3.890;2022-11-22T08:07:48;5.10;99.90
25436;DHT22;13363;52.772;-3.890;2022-11-22T08:10:16;5.10;99.90
25436;DHT22;13363;52.772;-3.890;2022-11-22T08:12:42;5.10;99.90
25436;DHT22;13363;52.772;-3.890;2022-11-22T08:15:10;5.00;99.90
25436;DHT22;13363;52.772;-3.890;2022-11-22T08:17:36;5.00;99.90
25436;DHT22;13363;52.772;-3.890;2022-11-22T08:20:03;5.10;99.90
25436;DHT22;13363;52.772;-3.890;2022-11-22T08:22:30;5.10;99.90
25436;DHT22;13363;52.772;-3.890;2022-11-22T08:24:55;5.10;99.90
25436;DHT22;13363;52.772;-3.890;2022-11-22T08:27:23;5.10;99.90
25436;DHT22;13363;52.772;-3.890;2022-11-22T08:29:49;5.10;99.90
25436;DHT22;13363;52.772;-3.890;2022-11-22T08:32:15;5.10;99.90
25436;DHT22;13363;52.772;-3.890;2022-11-22T08:34:40;5.10;99.90
25436;DHT22;13363;52.772;-3.890;2022-11-22T08:37:06;5.20;99.90
25436;DHT22;13363;52.772;-3.890;2022-11-22T08:39:32;5.10;99.90
25436;DHT22;13363;52.772;-3.890;2022-11-22T08:41:58;5.20;99.90
25436;DHT22;13363;52.772;-3.890;2022-11-22T08:44:24;4.70;99.90
25436;DHT22;13363;52.772;-3.890;2022-11-22T08:46:50;5.00;99.90
25436;DHT22;13363;52.772;-3.890;2022-11-22T08:49:15;5.10;99.90
25436;DHT22;13363;52.772;-3.890;2022-11-22T08:54:13;5.20;99.90
25436;DHT22;13363;52.772;-3.890;2022-11-22T08:56:39;5.30;99.90
25436;DHT22;13363;52.772;-3.890;2022-11-22T08:59:05;5.30;99.90
25436;DHT22;13363;52.772;-3.890;2022-11-22T09:01:31;5.40;99.90
25436;DHT22;13363;52.772;-3.890;2022-11-22T09:03:57;5.40;99.90
25436;DHT22;13363;52.772;-3.890;2022-11-22T09:06:23;5.50;99.90
25436;DHT22;13363;52.772;-3.890;2022-11-22T09:08:49;5.50;99.90
25436;DHT22;13363;52.772;-3.890;2022-11-22T09:11:16;5.60;99.90
25436;DHT22;13363;52.772;-3.890;2022-11-22T09:13:43;5.60;99.90
25436;DHT22;13363;52.772;-3.890;2022-11-22T09:16:14;5.70;99.90
25436;DHT22;13363;52.772;-3.890;2022-11-22T09:18:40;5.80;99.90
25436;DHT22;13363;52.772;-3.890;2022-11-22T09:21:09;5.90;99.90
25436;DHT22;13363;52.772;-3.890;2022-11-22T09:23:36;6.00;99.90
25436;DHT22;13363;52.772;-3.890;2022-11-22T09:26:07;6.00;99.90
25436;DHT22;13363;52.772;-3.890;2022-11-22T09:28:34;5.90;99.90
25436;DHT22;13363;52.772;-3.890;2022-11-22T09:31:02;6.20;99.90
25436;DHT22;13363;52.772;-3.890;2022-11-22T09:33:30;6.20;99.90
25436;DHT22;13363;52.772;-3.890;2022-11-22T09:36:01;6.10;99.90
25436;DHT22;13363;52.772;-3.890;2022-11-22T09:38:28;6.00;99.90
25436;DHT22;13363;52.772;-3.890;2022-11-22T09:40:55;6.00;99.90
25436;DHT22;13363;52.772;-3.890;2022-11-22T09:46:06;6.10;99.90
25436;DHT22;13363;52.772;-3.890;2022-11-22T09:51:42;8.00;99.90
25436;DHT22;13363;52.772;-3.890;2022-11-22T09:54:14;9.30;99.90
25436;DHT22;13363;52.772;-3.890;2022-11-22T09:56:42;10.20;99.90
25436;DHT22;13363;52.772;-3.890;2022-11-22T09:59:16;11.00;99.90
25436;DHT22;13363;52.772;-3.890;2022-11-22T10:02:25;11.80;99.90
25436;DHT22;13363;52.772;-3.890;2022-11-22T10:05:00;12.30;99.90
25436;DHT22;13363;52.772;-3.890;2022-11-22T10:07:42;12.50;99.90
25436;DHT22;13363;52.772;-3.890;2022-11-22T10:10:31;12.50;99.90
25436;DHT22;13363;52.772;-3.890;2022-11-22T10:13:28;12.80;99.90
25436;DHT22;13363;52.772;-3.890;2022-11-22T10:16:06;12.80;99.90
25436;DHT22;13363;52.772;-3.890;2022-11-22T10:19:15;12.20;99.90
25436;DHT22;13363;52.772;-3.890;2022-11-22T10:21:33;12.30;99.90
25436;DHT22;13363;52.772;-3.890;2022-11-22T10:23:59;12.50;99.90
25436;DHT22;13363;52.772;-3.890;2022-11-22T10:26:35;12.80;99.90
25436;DHT22;13363;52.772;-3.890;2022-11-22T10:31:48;12.40;99.90
25436;DHT22;13363;52.772;-3.890;2022-11-22T10:41:15;11.70;99.90
25436;DHT22;13363;52.772;-3.890;2022-11-22T10:45:55;12.10;99.90
25436;DHT22;13363;52.772;-3.890;2022-11-22T10:51:13;13.10;99.90
25436;DHT22;13363;52.772;-3.890;2022-11-22T10:59:42;13.30;99.90
25436;DHT22;13363;52.772;-3.890;2022-11-22T11:05:11;13.60;99.90
25436;DHT22;13363;52.772;-3.890;2022-11-22T11:07:42;14.50;99.90
25436;DHT22;13363;52.772;-3.890;2022-11-22T11:12:51;15.20;99.90
25436;DHT22;13363;52.772;-3.890;2022-11-22T11:15:34;14.70;99.90
25436;DHT22;13363;52.772;-3.890;2022-11-22T11:18:03;14.20;99.90
25436;DHT22;13363;52.772;-3.890;2022-11-22T11:20:36;14.10;99.90
25436;DHT22;13363;52.772;-3.890;2022-11-22T11:23:02;14.60;99.90
25436;DHT22;13363;52.772;-3.890;2022-11-22T11:25:35;14.40;99.90
25436;DHT22;13363;52.772;-3.890;2022-11-22T11:28:18;15.10;99.90
25436;DHT22;13363;52.772;-3.890;2022-11-22T11:38:47;15.60;99.90
25436;DHT22;13363;52.772;-3.890;2022-11-22T11:41:19;15.40;99.90
25436;DHT22;13363;52.772;-3.890;2022-11-22T11:43:46;14.70;99.90
25436;DHT22;13363;52.772;-3.890;2022-11-22T11:46:18;14.60;99.90
25436;DHT22;13363;52.772;-3.890;2022-11-22T11:48:45;14.80;99.90
25436;DHT22;13363;52.772;-3.890;2022-11-22T11:51:47;15.00;99.90
25436;DHT22;13363;52.772;-3.890;2022-11-22T11:57:14;15.40;99.90
25436;DHT22;13363;52.772;-3.890;2022-11-22T12:05:04;16.00;99.90
25436;DHT22;13363;52.772;-3.890;2022-11-22T12:10:00;15.70;99.90
25436;DHT22;13363;52.772;-3.890;2022-11-22T12:15:20;15.40;99.90
25436;DHT22;13363;52.772;-3.890;2022-11-22T12:18:27;15.40;99.90
25436;DHT22;13363;52.772;-3.890;2022-11-22T12:21:17;15.60;99.90
25436;DHT22;13363;52.772;-3.890;2022-11-22T12:24:06;15.70;99.90
25436;DHT22;13363;52.772;-3.890;2022-11-22T12:26:34;15.40;99.90
25436;DHT22;13363;52.772;-3.890;2022-11-22T12:28:59;15.40;99.90
25436;DHT22;13363;52.772;-3.890;2022-11-22T12:34:05;15.80;99.90
25436;DHT22;13363;52.772;-3.890;2022-11-22T12:36:41;15.90;99.90
25436;DHT22;13363;52.772;-3.890;2022-11-22T12:39:17;16.40;99.90
25436;DHT22;13363;52.772;-3.890;2022-11-22T12:41:47;16.40;99.90
25436;DHT22;13363;52.772;-3.890;2022-11-22T12:44:19;16.30;99.90
25436;DHT22;13363;52.772;-3.890;2022-11-22T12:51:55;15.90;99.90
25436;DHT22;13363;52.772;-3.890;2022-11-22T12:54:29;15.50;99.90
25436;DHT22;13363;52.772;-3.890;2022-11-22T12:57:00;15.40;99.90
25436;DHT22;13363;52.772;-3.890;2022-11-22T12:59:42;15.30;99.90
25436;DHT22;13363;52.772;-3.890;2022-11-22T13:02:39;15.10;99.90
25436;DHT22;13363;52.772;-3.890;2022-11-22T13:05:23;15.20;99.90
25436;DHT22;13363;52.772;-3.890;2022-11-22T13:08:51;15.30;99.90
25436;DHT22;13363;52.772;-3.890;2022-11-22T13:14:04;15.20;99.90
25436;DHT22;13363;52.772;-3.890;2022-11-22T13:16:31;15.10;99.90
25436;DHT22;13363;52.772;-3.890;2022-11-22T13:19:00;14.80;99.90
25436;DHT22;13363;52.772;-3.890;2022-11-22T13:24:25;13.80;99.90
25436;DHT22;13363;52.772;-3.890;2022-11-22T13:27:40;13.50;99.90
25436;DHT22;13363;52.772;-3.890;2022-11-22T13:30:00;13.40;99.90
25436;DHT22;13363;52.772;-3.890;2022-11-22T13:32:30;13.40;99.90
25436;DHT22;13363;52.772;-3.890;2022-11-22T13:37:44;13.10;99.90
25436;DHT22;13363;52.772;-3.890;2022-11-22T13:45:58;12.60;99.90
25436;DHT22;13363;52.772;-3.890;2022-11-22T13:51:14;12.60;99.90
25436;DHT22;13363;52.772;-3.890;2022-11-22T13:53:46;12.60;99.90
25436;DHT22;13363;52.772;-3.890;2022-11-22T14:04:19;12.90;99.90
25436;DHT22;13363;52.772;-3.890;2022-11-22T14:07:04;13.10;99.90
25436;DHT22;13363;52.772;-3.890;2022-11-22T14:09:44;13.20;99.90
25436;DHT22;13363;52.772;-3.890;2022-11-22T14:12:42;13.30;99.90
25436;DHT22;13363;52.772;-3.890;2022-11-22T14:32:00;12.40;99.90
25436;DHT22;13363;52.772;-3.890;2022-11-22T14:34:29;12.20;99.90
25436;DHT22;13363;52.772;-3.890;2022-11-22T14:42:44;12.10;99.90
25436;DHT22;13363;52.772;-3.890;2022-11-22T14:45:27;12.30;99.90
25436;DHT22;13363;52.772;-3.890;2022-11-22T14:48:00;12.40;99.90
25436;DHT22;13363;52.772;-3.890;2022-11-22T14:53:20;12.30;99.90
25436;DHT22;13363;52.772;-3.890;2022-11-22T14:55:46;12.20;99.90
25436;DHT22;13363;52.772;-3.890;2022-11-22T14:58:21;12.00;99.90
25436;DHT22;13363;52.772;-3.890;2022-11-22T15:09:27;11.60;99.90
25436;DHT22;13363;52.772;-3.890;2022-11-22T15:15:45;11.60;99.90
25436;DHT22;13363;52.772;-3.890;2022-11-22T15:20:39;11.50;99.90
25436;DHT22;13363;52.772;-3.890;2022-11-22T15:23:13;11.40;99.90
25436;DHT22;13363;52.772;-3.890;2022-11-22T15:25:42;11.20;99.90
25436;DHT22;13363;52.772;-3.890;2022-11-22T15:28:20;11.00;99.90
25436;DHT22;13363;52.772;-3.890;2022-11-22T15:30:51;10.90;99.90
25436;DHT22;13363;52.772;-3.890;2022-11-22T15:33:24;10.70;99.90
25436;DHT22;13363;52.772;-3.890;2022-11-22T15:38:33;10.40;99.90
25436;DHT22;13363;52.772;-3.890;2022-11-22T15:41:13;10.30;99.90
25436;DHT22;13363;52.772;-3.890;2022-11-22T15:43:39;10.10;99.90
25436;DHT22;13363;52.772;-3.890;2022-11-22T15:46:05;10.00;99.90
25436;DHT22;13363;52.772;-3.890;2022-11-22T15:48:39;10.00;99.90
25436;DHT22;13363;52.772;-3.890;2022-11-22T15:53:35;9.80;99.90
25436;DHT22;13363;52.772;-3.890;2022-11-22T15:58:44;9.60;99.90
25436;DHT22;13363;52.772;-3.890;2022-11-22T16:01:14;9.60;99.90
25436;DHT22;13363;52.772;-3.890;2022-11-22T16:03:41;9.60;99.90
25436;DHT22;13363;52.772;-3.890;2022-11-22T16:06:31;9.60;99.90
25436;DHT22;13363;52.772;-3.890;2022-11-22T16:09:02;9.50;99.90
25436;DHT22;13363;52.772;-3.890;2022-11-22T16:11:33;9.50;99.90
25436;DHT22;13363;52.772;-3.890;2022-11-22T16:14:00;9.50;99.90
25436;DHT22;13363;52.772;-3.890;2022-11-22T16:16:31;9.50;99.90
25436;DHT22;13363;52.772;-3.890;2022-11-22T16:19:32;9.50;99.90
25436;DHT22;13363;52.772;-3.890;2022-11-22T16:22:00;9.50;99.90
25436;DHT22;13363;52.772;-3.890;2022-11-22T16:24:28;9.40;99.90
25436;DHT22;13363;52.772;-3.890;2022-11-22T16:27:04;9.40;99.90
25436;DHT22;13363;52.772;-3.890;2022-11-22T16:29:36;9.40;99.90
25436;DHT22;13363;52.772;-3.890;2022-11-22T16:32:09;9.30;99.90
25436;DHT22;13363;52.772;-3.890;2022-11-22T16:34:36;9.30;99.90
25436;DHT22;13363;52.772;-3.890;2022-11-22T16:37:24;9.30;99.90
25436;DHT22;13363;52.772;-3.890;2022-11-22T16:39:50;9.20;99.90
25436;DHT22;13363;52.772;-3.890;2022-11-22T16:42:16;9.20;99.90
25436;DHT22;13363;52.772;-3.890;2022-11-22T16:44:42;9.10;99.90
25436;DHT22;13363;52.772;-3.890;2022-11-22T16:47:15;8.90;99.90
25436;DHT22;13363;52.772;-3.890;2022-11-22T16:49:44;8.80;99.90
25436;DHT22;13363;52.772;-3.890;2022-11-22T16:52:11;8.60;99.90
25436;DHT22;13363;52.772;-3.890;2022-11-22T16:54:38;8.50;99.90
25436;DHT22;13363;52.772;-3.890;2022-11-22T16:57:11;8.40;99.90
25436;DHT22;13363;52.772;-3.890;2022-11-22T16:59:37;8.30;99.90
25436;DHT22;13363;52.772;-3.890;2022-11-22T17:02:10;8.20;99.90
25436;DHT22;13363;52.772;-3.890;2022-11-22T17:04:36;8.10;99.90
25436;DHT22;13363;52.772;-3.890;2022-11-22T17:07:02;7.90;99.90
25436;DHT22;13363;52.772;-3.890;2022-11-22T17:09:28;7.80;99.90
25436;DHT22;13363;52.772;-3.890;2022-11-22T17:11:54;7.70;99.90
25436;DHT22;13363;52.772;-3.890;2022-11-22T17:14:19;7.70;99.90
25436;DHT22;13363;52.772;-3.890;2022-11-22T17:16:45;7.70;99.90
25436;DHT22;13363;52.772;-3.890;2022-11-22T17:19:11;7.70;99.90
25436;DHT22;13363;52.772;-3.890;2022-11-22T17:21:37;7.70;99.90
25436;DHT22;13363;52.772;-3.890;2022-11-22T17:24:16;7.70;99.90
25436;DHT22;13363;52.772;-3.890;2022-11-22T17:26:42;7.70;99.90
25436;DHT22;13363;52.772;-3.890;2022-11-22T17:29:08;7.70;99.90
25436;DHT22;13363;52.772;-3.890;2022-11-22T17:31:33;7.90;99.90
25436;DHT22;13363;52.772;-3.890;2022-11-22T17:34:00;8.10;99.90
25436;DHT22;13363;52.772;-3.890;2022-11-22T17:36:28;8.10;99.90
25436;DHT22;13363;52.772;-3.890;2022-11-22T17:38:55;8.00;99.90
25436;DHT22;13363;52.772;-3.890;2022-11-22T17:41:21;7.90;99.90
25436;DHT22;13363;52.772;-3.890;2022-11-22T17:43:47;7.80;99.90
25436;DHT22;13363;52.772;-3.890;2022-11-22T17:46:13;7.70;99.90
25436;DHT22;13363;52.772;-3.890;2022-11-22T17:48:39;7.60;99.90
25436;DHT22;13363;52.772;-3.890;2022-11-22T17:51:11;7.60;99.90
25436;DHT22;13363;52.772;-3.890;2022-11-22T17:53:38;7.60;99.90
25436;DHT22;13363;52.772;-3.890;2022-11-22T17:56:05;7.60;99.90
25436;DHT22;13363;52.772;-3.890;2022-11-22T17:58:32;7.70;99.90
25436;DHT22;13363;52.772;-3.890;2022-11-22T18:01:03;7.70;99.90